sensor_id;sensor_type;location;lat;lon;timestamp;pressure;altitude;pressure_sealevel;temperature;humidity
23164;BME280;31429;42.674;23.350;2023-04-01T00:00:27;93916.63;;;11.13;100.00
23164;BME280;31429;42.674;23.350;2023-04-01T00:01:28;93922.31;;;11.02;100.00
23164;BME280;31429;42.674;23.350;2023-04-01T00:02:29;93920.25;;;10.93;100.00
23164;BME280;31429;42.674;23.350;2023-04-01T00:03:30;93922.44;;;11.01;100.00
23164;BME280;31429;42.674;23.350;2023-04-01T00:04:31;93907.78;;;10.87;100.00
23164;BME280;31429;42.674;23.350;2023-04-01T00:05:32;93921.91;;;10.94;100.00
23164;BME280;31429;42.674;23.350;2023-04-01T00:06:33;93923.13;;;10.87;100.00
23164;BME280;31429;42.674;23.350;2023-04-01T00:07:33;93923.56;;;10.95;100.00
23164;BME280;31429;42.674;23.350;2023-04-01T00:08:34;93914.50;;;11.05;100.00
23164;BME280;31429;42.674;23.350;2023-04-01T00:09:35;93921.28;;;11.06;100.00
23164;BME280;31429;42.674;23.350;2023-04-01T00:10:36;93917.94;;;11.04;100.00
23164;BME280;31429;42.674;23.350;2023-04-01T00:11:36;93924.38;;;10.95;100.00
23164;BME280;31429;42.674;23.350;2023-04-01T00:12:37;93930.84;;;11.03;100.00
23164;BME280;31429;42.674;23.350;2023-04-01T00:13:38;93928.13;;;11.06;100.00
23164;BME280;31429;42.674;23.350;2023-04-01T00:14:39;93925.72;;;11.03;100.00
23164;BME280;31429;42.674;23.350;2023-04-01T00:15:40;93917.47;;;10.98;100.00
23164;BME280;31429;42.674;23.350;2023-04-01T00:16:42;93925.81;;;11.01;100.00
23164;BME280;31429;42.674;23.350;2023-04-01T00:17:43;93925.94;;;10.82;100.00
23164;BME280;31429;42.674;23.350;2023-04-01T00:18:44;93926.34;;;10.75;100.00
23164;BME280;31429;42.674;23.350;2023-04-01T00:19:44;93930.78;;;10.71;100.00
23164;BME280;31429;42.674;23.350;2023-04-01T00:20:46;93928.53;;;10.65;100.00
23164;BME280;31429;42.674;23.350;2023-04-01T00:21:46;93931.19;;;10.64;100.00
23164;BME280;31429;42.674;23.350;2023-04-01T00:22:48;93929.34;;;10.66;100.00
23164;BME280;31429;42.674;23.350;2023-04-01T00:23:49;93928.19;;;10.56;100.00
23164;BME280;31429;42.674;23.350;2023-04-01T00:24:49;93933.13;;;10.59;100.00
23164;BME280;31429;42.674;23.350;2023-04-01T00:25:50;93941.13;;;10.53;100.00
23164;BME280;31429;42.674;23.350;2023-04-01T00:26:51;93931.22;;;10.47;100.00
23164;BME280;31429;42.674;23.350;2023-04-01T00:27:51;93928.09;;;10.57;100.00
23164;BME280;31429;42.674;23.350;2023-04-01T00:28:52;93933.63;;;10.65;100.00
23164;BME280;31429;42.674;23.350;2023-04-01T00:29:53;93930.19;;;10.66;100.00
23164;BME280;31429;42.674;23.350;2023-04-01T00:30:53;93931.97;;;10.64;100.00
23164;BME280;31429;42.674;23.350;2023-04-01T00:31:56;93927.53;;;10.68;100.00
23164;BME280;31429;42.674;23.350;2023-04-01T00:32:56;93933.31;;;10.71;100.00
23164;BME280;31429;42.674;23.350;2023-04-01T00:33:57;93929.19;;;10.69;100.00
23164;BME280;31429;42.674;23.350;2023-04-01T00:34:58;93929.72;;;10.75;100.00
23164;BME280;31429;42.674;23.350;2023-04-01T00:36:06;93923.00;;;10.73;100.00
23164;BME280;31429;42.674;23.350;2023-04-01T00:37:07;93913.13;;;10.67;100.00
23164;BME280;31429;42.674;23.350;2023-04-01T00:38:08;93924.97;;;10.68;100.00
23164;BME280;31429;42.674;23.350;2023-04-01T00:39:11;93916.81;;;10.61;100.00
23164;BME280;31429;42.674;23.350;2023-04-01T00:40:24;93921.63;;;10.50;100.00
23164;BME280;31429;42.674;23.350;2023-04-01T00:41:25;93925.78;;;10.53;100.00
23164;BME280;31429;42.674;23.350;2023-04-01T00:42:26;93916.81;;;10.61;100.00
23164;BME280;31429;42.674;23.350;2023-04-01T00:43:27;93918.41;;;10.64;100.00
23164;BME280;31429;42.674;23.350;2023-04-01T00:44:29;93909.47;;;10.55;100.00
23164;BME280;31429;42.674;23.350;2023-04-01T00:45:34;93903.09;;;10.47;100.00
23164;BME280;31429;42.674;23.350;2023-04-01T00:46:35;93905.50;;;10.50;100.00
23164;BME280;31429;42.674;23.350;2023-04-01T00:47:38;93911.78;;;10.60;100.00
23164;BME280;31429;42.674;23.350;2023-04-01T00:48:42;93905.25;;;10.54;100.00
23164;BME280;31429;42.674;23.350;2023-04-01T00:49:46;93899.56;;;10.49;100.00
23164;BME280;31429;42.674;23.350;2023-04-01T00:50:49;93894.13;;;10.55;100.00
23164;BME280;31429;42.674;23.350;2023-04-01T00:51:53;93892.41;;;10.56;100.00
23164;BME280;31429;42.674;23.350;2023-04-01T00:52:55;93895.75;;;10.56;100.00
23164;BME280;31429;42.674;23.350;2023-04-01T00:53:58;93893.16;;;10.58;100.00
23164;BME280;31429;42.674;23.350;2023-04-01T00:55:03;93886.38;;;10.57;100.00
23164;BME280;31429;42.674;23.350;2023-04-01T00:56:10;93884.81;;;10.54;100.00
23164;BME280;31429;42.674;23.350;2023-04-01T00:57:15;93885.47;;;10.58;100.00
23164;BME280;31429;42.674;23.350;2023-04-01T00:58:21;93882.84;;;10.59;100.00
23164;BME280;31429;42.674;23.350;2023-04-01T00:59:25;93887.88;;;10.61;100.00
23164;BME280;31429;42.674;23.350;2023-04-01T01:00:26;93886.16;;;10.61;100.00
23164;BME280;31429;42.674;23.350;2023-04-01T01:01:29;93882.56;;;10.48;100.00
23164;BME280;31429;42.674;23.350;2023-04-01T01:02:31;93870.88;;;10.60;100.00
23164;BME280;31429;42.674;23.350;2023-04-01T01:03:33;93879.44;;;10.59;100.00
23164;BME280;31429;42.674;23.350;2023-04-01T01:04:34;93876.16;;;10.57;100.00
23164;BME280;31429;42.674;23.350;2023-04-01T01:05:48;93870.53;;;10.50;100.00
23164;BME280;31429;42.674;23.350;2023-04-01T01:07:03;93868.31;;;10.60;100.00
23164;BME280;31429;42.674;23.350;2023-04-01T01:08:14;93876.00;;;10.60;100.00
23164;BME280;31429;42.674;23.350;2023-04-01T01:09:29;93872.44;;;10.62;100.00
23164;BME280;31429;42.674;23.350;2023-04-01T01:10:32;93867.16;;;10.50;100.00
23164;BME280;31429;42.674;23.350;2023-04-01T01:11:37;93867.00;;;10.53;100.00
23164;BME280;31429;42.674;23.350;2023-04-01T01:12:44;93867.31;;;10.47;100.00
23164;BME280;31429;42.674;23.350;2023-04-01T01:13:53;93862.06;;;10.50;100.00
23164;BME280;31429;42.674;23.350;2023-04-01T01:15:05;93860.97;;;10.54;100.00
23164;BME280;31429;42.674;23.350;2023-04-01T01:16:12;93857.69;;;10.52;100.00
23164;BME280;31429;42.674;23.350;2023-04-01T01:17:26;93837.03;;;10.39;100.00
23164;BME280;31429;42.674;23.350;2023-04-01T01:18:34;93855.28;;;10.49;100.00
23164;BME280;31429;42.674;23.350;2023-04-01T01:19:52;93857.00;;;10.48;100.00
23164;BME280;31429;42.674;23.350;2023-04-01T01:22:52;93858.50;;;10.52;100.00
23164;BME280;31429;42.674;23.350;2023-04-01T01:24:17;93847.63;;;10.49;100.00
23164;BME280;31429;42.674;23.350;2023-04-01T01:25:33;93856.63;;;10.56;100.00
23164;BME280;31429;42.674;23.350;2023-04-01T01:26:56;93849.44;;;10.47;100.00
23164;BME280;31429;42.674;23.350;2023-04-01T01:28:11;93840.69;;;10.51;100.00
23164;BME280;31429;42.674;23.350;2023-04-01T01:29:35;93840.19;;;10.44;100.00
23164;BME280;31429;42.674;23.350;2023-04-01T01:30:44;93829.16;;;10.44;100.00
23164;BME280;31429;42.674;23.350;2023-04-01T01:31:52;93837.56;;;10.46;100.00
23164;BME280;31429;42.674;23.350;2023-04-01T01:33:21;93838.66;;;10.57;100.00
23164;BME280;31429;42.674;23.350;2023-04-01T01:34:29;93841.88;;;10.61;100.00
23164;BME280;31429;42.674;23.350;2023-04-01T01:35:37;93836.94;;;10.58;100.00
23164;BME280;31429;42.674;23.350;2023-04-01T01:36:41;93834.22;;;10.61;100.00
23164;BME280;31429;42.674;23.350;2023-04-01T01:37:43;93837.09;;;10.55;100.00
23164;BME280;31429;42.674;23.350;2023-04-01T01:38:47;93830.41;;;10.52;100.00
23164;BME280;31429;42.674;23.350;2023-04-01T01:39:53;93823.06;;;10.46;100.00
23164;BME280;31429;42.674;23.350;2023-04-01T01:40:56;93824.88;;;10.44;100.00
23164;BME280;31429;42.674;23.350;2023-04-01T01:42:00;93830.78;;;10.45;100.00
23164;BME280;31429;42.674;23.350;2023-04-01T01:43:05;93825.84;;;10.42;100.00
23164;BME280;31429;42.674;23.350;2023-04-01T01:44:08;93824.34;;;10.37;100.00
23164;BME280;31429;42.674;23.350;2023-04-01T01:45:11;93833.34;;;10.45;100.00
23164;BME280;31429;42.674;23.350;2023-04-01T01:46:15;93823.88;;;10.47;100.00
23164;BME280;31429;42.674;23.350;2023-04-01T01:47:19;93826.22;;;10.67;100.00
23164;BME280;31429;42.674;23.350;2023-04-01T01:48:22;93819.97;;;10.72;100.00
23164;BME280;31429;42.674;23.350;2023-04-01T01:49:24;93819.50;;;10.64;100.00
23164;BME280;31429;42.674;23.350;2023-04-01T01:50:26;93819.34;;;10.67;100.00
23164;BME280;31429;42.674;23.350;2023-04-01T01:51:29;93827.84;;;10.68;100.00
23164;BME280;31429;42.674;23.350;2023-04-01T01:52:30;93832.22;;;10.66;100.00
23164;BME280;31429;42.674;23.350;2023-04-01T01:53:31;93827.84;;;10.68;100.00
23164;BME280;31429;42.674;23.350;2023-04-01T01:54:31;93826.69;;;10.73;100.00
23164;BME280;31429;42.674;23.350;2023-04-01T01:55:34;93815.25;;;10.80;100.00
23164;BME280;31429;42.674;23.350;2023-04-01T01:56:35;93812.88;;;10.77;100.00
23164;BME280;31429;42.674;23.350;2023-04-01T01:57:38;93809.81;;;10.71;100.00
23164;BME280;31429;42.674;23.350;2023-04-01T01:58:42;93809.91;;;10.69;100.00
23164;BME280;31429;42.674;23.350;2023-04-01T01:59:46;93802.63;;;10.62;100.00
23164;BME280;31429;42.674;23.350;2023-04-01T02:00:51;93814.66;;;10.60;100.00
23164;BME280;31429;42.674;23.350;2023-04-01T02:01:55;93808.16;;;10.85;100.00
23164;BME280;31429;42.674;23.350;2023-04-01T02:02:57;93811.44;;;10.87;100.00
23164;BME280;31429;42.674;23.350;2023-04-01T02:03:59;93807.25;;;10.71;100.00
23164;BME280;31429;42.674;23.350;2023-04-01T02:05:00;93812.09;;;10.60;100.00
23164;BME280;31429;42.674;23.350;2023-04-01T02:06:03;93812.59;;;10.51;100.00
23164;BME280;31429;42.674;23.350;2023-04-01T02:07:09;93813.25;;;10.54;100.00
23164;BME280;31429;42.674;23.350;2023-04-01T02:08:13;93807.16;;;10.57;100.00
23164;BME280;31429;42.674;23.350;2023-04-01T02:09:16;93805.59;;;10.54;100.00
23164;BME280;31429;42.674;23.350;2023-04-01T02:10:17;93795.69;;;10.48;100.00
23164;BME280;31429;42.674;23.350;2023-04-01T02:11:24;93787.34;;;10.45;100.00
23164;BME280;31429;42.674;23.350;2023-04-01T02:12:26;93802.03;;;10.57;100.00
23164;BME280;31429;42.674;23.350;2023-04-01T02:13:31;93800.31;;;10.57;100.00
23164;BME280;31429;42.674;23.350;2023-04-01T02:14:38;93804.69;;;10.55;100.00
23164;BME280;31429;42.674;23.350;2023-04-01T02:15:43;93793.06;;;10.50;100.00
23164;BME280;31429;42.674;23.350;2023-04-01T02:16:49;93798.50;;;10.59;100.00
23164;BME280;31429;42.674;23.350;2023-04-01T02:17:51;93804.59;;;10.57;100.00
23164;BME280;31429;42.674;23.350;2023-04-01T02:18:54;93790.81;;;10.44;100.00
23164;BME280;31429;42.674;23.350;2023-04-01T02:19:58;93796.16;;;10.39;100.00
23164;BME280;31429;42.674;23.350;2023-04-01T02:21:00;93793.69;;;10.37;100.00
23164;BME280;31429;42.674;23.350;2023-04-01T02:22:03;93789.41;;;10.38;100.00
23164;BME280;31429;42.674;23.350;2023-04-01T02:23:07;93796.25;;;10.37;100.00
23164;BME280;31429;42.674;23.350;2023-04-01T02:24:12;93784.56;;;10.49;100.00
23164;BME280;31429;42.674;23.350;2023-04-01T02:25:17;93778.31;;;10.55;100.00
23164;BME280;31429;42.674;23.350;2023-04-01T02:26:19;93779.69;;;10.45;100.00
23164;BME280;31429;42.674;23.350;2023-04-01T02:27:21;93788.59;;;10.53;100.00
23164;BME280;31429;42.674;23.350;2023-04-01T02:28:23;93785.63;;;10.76;100.00
23164;BME280;31429;42.674;23.350;2023-04-01T02:29:25;93786.63;;;11.05;100.00
23164;BME280;31429;42.674;23.350;2023-04-01T02:30:27;93790.66;;;10.93;100.00
23164;BME280;31429;42.674;23.350;2023-04-01T02:31:30;93786.38;;;10.94;100.00
23164;BME280;31429;42.674;23.350;2023-04-01T02:32:31;93790.28;;;10.70;100.00
23164;BME280;31429;42.674;23.350;2023-04-01T02:33:34;93788.53;;;10.70;100.00
23164;BME280;31429;42.674;23.350;2023-04-01T02:34:35;93792.56;;;10.90;100.00
23164;BME280;31429;42.674;23.350;2023-04-01T02:35:36;93800.16;;;10.76;100.00
23164;BME280;31429;42.674;23.350;2023-04-01T02:36:38;93797.66;;;10.90;100.00
23164;BME280;31429;42.674;23.350;2023-04-01T02:37:39;93799.81;;;10.82;100.00
23164;BME280;31429;42.674;23.350;2023-04-01T02:38:46;93799.91;;;10.65;100.00
23164;BME280;31429;42.674;23.350;2023-04-01T02:39:48;93792.06;;;10.52;100.00
23164;BME280;31429;42.674;23.350;2023-04-01T02:40:51;93800.56;;;10.53;100.00
23164;BME280;31429;42.674;23.350;2023-04-01T02:41:56;93792.97;;;10.51;100.00
23164;BME280;31429;42.674;23.350;2023-04-01T02:42:57;93794.53;;;10.54;100.00
23164;BME280;31429;42.674;23.350;2023-04-01T02:43:58;93799.75;;;10.52;100.00
23164;BME280;31429;42.674;23.350;2023-04-01T02:44:59;93806.03;;;10.78;100.00
23164;BME280;31429;42.674;23.350;2023-04-01T02:46:00;93801.88;;;10.60;100.00
23164;BME280;31429;42.674;23.350;2023-04-01T02:47:02;93808.25;;;10.53;100.00
23164;BME280;31429;42.674;23.350;2023-04-01T02:48:03;93797.25;;;10.51;100.00
23164;BME280;31429;42.674;23.350;2023-04-01T02:49:04;93797.34;;;10.49;100.00
23164;BME280;31429;42.674;23.350;2023-04-01T02:50:06;93798.59;;;10.25;100.00
23164;BME280;31429;42.674;23.350;2023-04-01T02:51:08;93799.91;;;10.16;100.00
23164;BME280;31429;42.674;23.350;2023-04-01T02:52:08;93809.66;;;10.25;100.00
23164;BME280;31429;42.674;23.350;2023-04-01T02:53:10;93814.50;;;10.47;100.00
23164;BME280;31429;42.674;23.350;2023-04-01T02:54:12;93822.44;;;10.25;100.00
23164;BME280;31429;42.674;23.350;2023-04-01T02:55:12;93817.56;;;10.21;100.00
23164;BME280;31429;42.674;23.350;2023-04-01T02:56:13;93820.81;;;10.24;100.00
23164;BME280;31429;42.674;23.350;2023-04-01T02:57:14;93804.59;;;10.41;100.00
23164;BME280;31429;42.674;23.350;2023-04-01T02:58:14;93814.25;;;10.52;100.00
23164;BME280;31429;42.674;23.350;2023-04-01T02:59:15;93818.47;;;10.53;100.00
23164;BME280;31429;42.674;23.350;2023-04-01T03:00:17;93805.91;;;10.48;100.00
23164;BME280;31429;42.674;23.350;2023-04-01T03:01:18;93818.94;;;10.44;100.00
23164;BME280;31429;42.674;23.350;2023-04-01T03:02:18;93831.06;;;10.56;100.00
23164;BME280;31429;42.674;23.350;2023-04-01T03:03:19;93834.38;;;10.58;100.00
23164;BME280;31429;42.674;23.350;2023-04-01T03:04:20;93825.66;;;10.77;100.00
23164;BME280;31429;42.674;23.350;2023-04-01T03:05:21;93837.19;;;10.69;100.00
23164;BME280;31429;42.674;23.350;2023-04-01T03:06:21;93830.41;;;10.52;100.00
23164;BME280;31429;42.674;23.350;2023-04-01T03:07:22;93840.22;;;10.60;100.00
23164;BME280;31429;42.674;23.350;2023-04-01T03:08:23;93830.88;;;10.59;100.00
23164;BME280;31429;42.674;23.350;2023-04-01T03:09:25;93821.84;;;10.69;100.00
23164;BME280;31429;42.674;23.350;2023-04-01T03:10:25;93820.22;;;10.83;100.00
23164;BME280;31429;42.674;23.350;2023-04-01T03:11:26;93835.53;;;10.68;100.00
23164;BME280;31429;42.674;23.350;2023-04-01T03:12:26;93836.28;;;10.70;100.00
23164;BME280;31429;42.674;23.350;2023-04-01T03:13:27;93839.81;;;10.98;100.00
23164;BME280;31429;42.674;23.350;2023-04-01T03:14:28;93840.47;;;11.33;100.00
23164;BME280;31429;42.674;23.350;2023-04-01T03:15:28;93829.25;;;11.20;100.00
23164;BME280;31429;42.674;23.350;2023-04-01T03:16:29;93828.44;;;10.88;100.00
23164;BME280;31429;42.674;23.350;2023-04-01T03:17:30;93829.19;;;10.75;100.00
23164;BME280;31429;42.674;23.350;2023-04-01T03:18:30;93834.53;;;10.55;100.00
23164;BME280;31429;42.674;23.350;2023-04-01T03:19:31;93825.97;;;10.56;100.00
23164;BME280;31429;42.674;23.350;2023-04-01T03:20:31;93832.44;;;10.46;100.00
23164;BME280;31429;42.674;23.350;2023-04-01T03:21:32;93822.06;;;10.49;100.00
23164;BME280;31429;42.674;23.350;2023-04-01T03:22:33;93834.38;;;10.73;100.00
23164;BME280;31429;42.674;23.350;2023-04-01T03:23:33;93823.00;;;10.63;100.00
23164;BME280;31429;42.674;23.350;2023-04-01T03:24:35;93831.06;;;10.56;100.00
23164;BME280;31429;42.674;23.350;2023-04-01T03:25:36;93834.94;;;10.63;100.00
23164;BME280;31429;42.674;23.350;2023-04-01T03:26:36;93838.75;;;10.56;100.00
23164;BME280;31429;42.674;23.350;2023-04-01T03:27:37;93838.69;;;10.40;100.00
23164;BME280;31429;42.674;23.350;2023-04-01T03:28:38;93848.34;;;10.35;100.00
23164;BME280;31429;42.674;23.350;2023-04-01T03:29:38;93848.34;;;10.51;100.00
23164;BME280;31429;42.674;23.350;2023-04-01T03:30:39;93853.63;;;10.48;100.00
23164;BME280;31429;42.674;23.350;2023-04-01T03:31:40;93848.75;;;10.43;100.00
23164;BME280;31429;42.674;23.350;2023-04-01T03:32:40;93844.53;;;10.42;100.00
23164;BME280;31429;42.674;23.350;2023-04-01T03:33:41;93845.53;;;10.39;100.00
23164;BME280;31429;42.674;23.350;2023-04-01T03:34:42;93847.97;;;10.25;100.00
23164;BME280;31429;42.674;23.350;2023-04-01T03:35:43;93844.91;;;10.19;100.00
23164;BME280;31429;42.674;23.350;2023-04-01T03:36:43;93838.38;;;10.13;100.00
23164;BME280;31429;42.674;23.350;2023-04-01T03:37:44;93839.00;;;10.18;100.00
23164;BME280;31429;42.674;23.350;2023-04-01T03:38:45;93839.16;;;10.31;100.00
23164;BME280;31429;42.674;23.350;2023-04-01T03:39:47;93846.09;;;10.29;100.00
23164;BME280;31429;42.674;23.350;2023-04-01T03:40:48;93838.38;;;10.13;100.00
23164;BME280;31429;42.674;23.350;2023-04-01T03:41:48;93831.00;;;10.24;100.00
23164;BME280;31429;42.674;23.350;2023-04-01T03:42:49;93835.94;;;10.27;100.00
23164;BME280;31429;42.674;23.350;2023-04-01T03:43:50;93824.81;;;10.28;100.00
23164;BME280;31429;42.674;23.350;2023-04-01T03:44:50;93825.66;;;10.29;100.00
23164;BME280;31429;42.674;23.350;2023-04-01T03:45:51;93818.88;;;10.28;100.00
23164;BME280;31429;42.674;23.350;2023-04-01T03:46:52;93824.66;;;10.31;100.00
23164;BME280;31429;42.674;23.350;2023-04-01T03:47:53;93823.38;;;10.40;100.00
23164;BME280;31429;42.674;23.350;2023-04-01T03:48:54;93813.16;;;10.40;100.00
23164;BME280;31429;42.674;23.350;2023-04-01T03:49:55;93813.78;;;10.28;100.00
23164;BME280;31429;42.674;23.350;2023-04-01T03:50:55;93797.56;;;10.29;100.00
23164;BME280;31429;42.674;23.350;2023-04-01T03:51:56;93788.75;;;10.34;100.00
23164;BME280;31429;42.674;23.350;2023-04-01T03:52:57;93787.84;;;10.35;100.00
23164;BME280;31429;42.674;23.350;2023-04-01T03:53:57;93775.88;;;10.36;100.00
23164;BME280;31429;42.674;23.350;2023-04-01T03:55:00;93778.06;;;10.44;100.00
23164;BME280;31429;42.674;23.350;2023-04-01T03:56:04;93770.28;;;10.45;100.00
23164;BME280;31429;42.674;23.350;2023-04-01T03:57:05;93766.91;;;10.45;100.00
23164;BME280;31429;42.674;23.350;2023-04-01T03:58:06;93752.66;;;10.41;100.00
23164;BME280;31429;42.674;23.350;2023-04-01T03:59:08;93753.16;;;10.47;100.00
23164;BME280;31429;42.674;23.350;2023-04-01T04:00:09;93747.22;;;10.47;100.00
23164;BME280;31429;42.674;23.350;2023-04-01T04:01:15;93747.03;;;10.34;100.00
23164;BME280;31429;42.674;23.350;2023-04-01T04:02:16;93738.50;;;10.35;100.00
23164;BME280;31429;42.674;23.350;2023-04-01T04:03:17;93739.16;;;10.54;100.00
23164;BME280;31429;42.674;23.350;2023-04-01T04:04:17;93726.38;;;10.54;100.00
23164;BME280;31429;42.674;23.350;2023-04-01T04:05:18;93726.72;;;10.64;100.00
23164;BME280;31429;42.674;23.350;2023-04-01T04:06:19;93728.84;;;10.71;100.00
23164;BME280;31429;42.674;23.350;2023-04-01T04:07:20;93728.22;;;10.82;100.00
23164;BME280;31429;42.674;23.350;2023-04-01T04:08:20;93732.53;;;10.66;100.00
23164;BME280;31429;42.674;23.350;2023-04-01T04:09:21;93734.44;;;10.62;100.00
23164;BME280;31429;42.674;23.350;2023-04-01T04:10:24;93738.50;;;10.66;100.00
23164;BME280;31429;42.674;23.350;2023-04-01T04:11:25;93727.28;;;10.69;100.00
23164;BME280;31429;42.674;23.350;2023-04-01T04:12:26;93727.94;;;10.57;100.00
23164;BME280;31429;42.674;23.350;2023-04-01T04:13:26;93725.22;;;10.44;100.00
23164;BME280;31429;42.674;23.350;2023-04-01T04:14:27;93715.06;;;10.43;100.00
23164;BME280;31429;42.674;23.350;2023-04-01T04:15:28;93719.84;;;10.64;100.00
23164;BME280;31429;42.674;23.350;2023-04-01T04:16:28;93714.91;;;10.61;100.00
23164;BME280;31429;42.674;23.350;2023-04-01T04:17:29;93716.66;;;10.61;100.00
23164;BME280;31429;42.674;23.350;2023-04-01T04:18:30;93709.81;;;10.61;100.00
23164;BME280;31429;42.674;23.350;2023-04-01T04:19:31;93708.88;;;10.62;100.00
23164;BME280;31429;42.674;23.350;2023-04-01T04:20:34;93708.06;;;10.62;100.00
23164;BME280;31429;42.674;23.350;2023-04-01T04:21:35;93713.25;;;10.60;100.00
23164;BME280;31429;42.674;23.350;2023-04-01T04:22:36;93706.41;;;10.61;100.00
23164;BME280;31429;42.674;23.350;2023-04-01T04:23:36;93704.59;;;10.63;100.00
23164;BME280;31429;42.674;23.350;2023-04-01T04:24:37;93707.09;;;10.49;100.00
23164;BME280;31429;42.674;23.350;2023-04-01T04:25:39;93710.53;;;10.48;100.00
23164;BME280;31429;42.674;23.350;2023-04-01T04:26:40;93701.81;;;10.52;100.00
23164;BME280;31429;42.674;23.350;2023-04-01T04:27:41;93699.50;;;10.47;100.00
23164;BME280;31429;42.674;23.350;2023-04-01T04:28:41;93701.47;;;10.42;100.00
23164;BME280;31429;42.674;23.350;2023-04-01T04:29:42;93681.19;;;10.39;100.00
23164;BME280;31429;42.674;23.350;2023-04-01T04:30:43;93695.13;;;10.49;100.00
23164;BME280;31429;42.674;23.350;2023-04-01T04:31:43;93692.97;;;10.57;100.00
23164;BME280;31429;42.674;23.350;2023-04-01T04:32:44;93676.59;;;10.61;100.00
23164;BME280;31429;42.674;23.350;2023-04-01T04:33:45;93680.88;;;10.61;100.00
23164;BME280;31429;42.674;23.350;2023-04-01T04:34:46;93675.50;;;10.65;100.00
23164;BME280;31429;42.674;23.350;2023-04-01T04:35:46;93679.22;;;10.60;100.00
23164;BME280;31429;42.674;23.350;2023-04-01T04:36:47;93687.03;;;10.57;100.00
23164;BME280;31429;42.674;23.350;2023-04-01T04:37:48;93688.03;;;10.54;100.00
23164;BME280;31429;42.674;23.350;2023-04-01T04:38:48;93691.97;;;10.60;100.00
23164;BME280;31429;42.674;23.350;2023-04-01T04:39:49;93686.53;;;10.66;100.00
23164;BME280;31429;42.674;23.350;2023-04-01T04:40:51;93674.66;;;10.65;100.00
23164;BME280;31429;42.674;23.350;2023-04-01T04:41:52;93679.22;;;10.60;100.00
23164;BME280;31429;42.674;23.350;2023-04-01T04:42:52;93676.09;;;10.55;100.00
23164;BME280;31429;42.674;23.350;2023-04-01T04:43:54;93672.47;;;10.43;100.00
23164;BME280;31429;42.674;23.350;2023-04-01T04:44:55;93664.31;;;10.36;100.00
23164;BME280;31429;42.674;23.350;2023-04-01T04:45:56;93670.59;;;10.47;100.00
23164;BME280;31429;42.674;23.350;2023-04-01T04:46:56;93671.56;;;10.44;100.00
23164;BME280;31429;42.674;23.350;2023-04-01T04:47:57;93660.34;;;10.31;100.00
23164;BME280;31429;42.674;23.350;2023-04-01T04:48:58;93660.84;;;10.22;100.00
23164;BME280;31429;42.674;23.350;2023-04-01T04:49:59;93666.72;;;10.24;100.00
23164;BME280;31429;42.674;23.350;2023-04-01T04:51:00;93660.94;;;10.20;100.00
23164;BME280;31429;42.674;23.350;2023-04-01T04:52:01;93660.34;;;10.47;100.00
23164;BME280;31429;42.674;23.350;2023-04-01T04:53:01;93659.59;;;10.90;100.00
23164;BME280;31429;42.674;23.350;2023-04-01T04:54:03;93668.69;;;11.10;100.00
23164;BME280;31429;42.674;23.350;2023-04-01T04:55:05;93663.38;;;10.98;100.00
23164;BME280;31429;42.674;23.350;2023-04-01T04:56:07;93653.81;;;10.72;100.00
23164;BME280;31429;42.674;23.350;2023-04-01T04:57:08;93659.50;;;10.62;100.00
23164;BME280;31429;42.674;23.350;2023-04-01T04:58:09;93654.91;;;10.53;100.00
23164;BME280;31429;42.674;23.350;2023-04-01T04:59:09;93658.88;;;10.58;100.00
23164;BME280;31429;42.674;23.350;2023-04-01T05:00:10;93655.97;;;10.49;100.00
23164;BME280;31429;42.674;23.350;2023-04-01T05:01:13;93651.53;;;10.36;100.00
23164;BME280;31429;42.674;23.350;2023-04-01T05:02:14;93655.50;;;10.26;100.00
23164;BME280;31429;42.674;23.350;2023-04-01T05:03:15;93658.63;;;10.31;100.00
23164;BME280;31429;42.674;23.350;2023-04-01T05:04:16;93661.28;;;10.30;100.00
23164;BME280;31429;42.674;23.350;2023-04-01T05:05:17;93654.84;;;10.38;100.00
23164;BME280;31429;42.674;23.350;2023-04-01T05:06:18;93665.75;;;10.72;100.00
23164;BME280;31429;42.674;23.350;2023-04-01T05:07:19;93655.31;;;10.90;100.00
23164;BME280;31429;42.674;23.350;2023-04-01T05:08:20;93643.09;;;10.95;100.00
23164;BME280;31429;42.674;23.350;2023-04-01T05:09:21;93648.16;;;10.81;100.00
23164;BME280;31429;42.674;23.350;2023-04-01T05:10:21;93649.38;;;10.60;100.00
23164;BME280;31429;42.674;23.350;2023-04-01T05:11:24;93645.50;;;10.53;100.00
23164;BME280;31429;42.674;23.350;2023-04-01T05:12:26;93649.16;;;10.33;100.00
23164;BME280;31429;42.674;23.350;2023-04-01T05:13:27;93640.09;;;10.28;100.00
23164;BME280;31429;42.674;23.350;2023-04-01T05:14:27;93652.78;;;10.29;100.00
23164;BME280;31429;42.674;23.350;2023-04-01T05:15:28;93641.66;;;10.30;100.00
23164;BME280;31429;42.674;23.350;2023-04-01T05:16:28;93637.63;;;10.26;100.00
23164;BME280;31429;42.674;23.350;2023-04-01T05:17:30;93630.03;;;10.25;100.00
23164;BME280;31429;42.674;23.350;2023-04-01T05:18:30;93628.47;;;10.22;100.00
23164;BME280;31429;42.674;23.350;2023-04-01T05:19:31;93634.25;;;10.26;100.00
23164;BME280;31429;42.674;23.350;2023-04-01T05:20:32;93635.13;;;10.25;100.00
23164;BME280;31429;42.674;23.350;2023-04-01T05:21:32;93632.13;;;10.18;100.00
23164;BME280;31429;42.674;23.350;2023-04-01T05:22:33;93635.41;;;10.20;100.00
23164;BME280;31429;42.674;23.350;2023-04-01T05:23:34;93626.59;;;10.26;100.00
23164;BME280;31429;42.674;23.350;2023-04-01T05:24:35;93614.31;;;10.32;100.00